Time;durP1;ratioP1;P1;durP2;ratioP2;P2;SDS_P1;SDS_P2;PMS_P1;PMS_P2;Temp;Humidity;BMP_temperature;BMP_pressure;BME280_temperature;BME280_humidity;BME280_pressure;Samples;Min_cycle;Max_cycle;Signal;HPM_P1;HPM_P2
2023/12/15 00:01:00;;;;;;;15.70;11.80;;;;;;;2.32;88.99;95589.83;110399;1277;22915;-83
2023/12/15 00:03:42;;;;;;;17.00;11.50;;;;;;;2.34;89.19;95590.19;110356;1277;22291;-82
2023/12/15 00:06:10;;;;;;;15.60;10.80;;;;;;;2.36;89.27;95593.52;110360;1277;22132;-83
2023/12/15 00:08:38;;;;;;;14.70;9.20;;;;;;;2.35;89.16;95600.98;110307;1277;22134;-82
2023/12/15 00:11:07;;;;;;;12.80;8.80;;;;;;;2.33;88.96;95608.58;110341;1277;22123;-83
2023/12/15 00:13:35;;;;;;;11.30;7.90;;;;;;;2.29;88.71;95605.91;110311;1277;22140;-82
2023/12/15 00:16:04;;;;;;;12.50;7.90;;;;;;;2.24;88.71;95608.63;110356;1277;22156;-83
2023/12/15 00:18:32;;;;;;;11.80;8.50;;;;;;;2.18;88.60;95608.02;110366;1277;22133;-83
2023/12/15 00:21:01;;;;;;;11.90;7.80;;;;;;;2.13;88.60;95618.73;110354;1277;22613;-82
2023/12/15 00:23:29;;;;;;;10.90;7.50;;;;;;;2.08;88.51;95625.42;110312;1277;22741;-83
2023/12/15 00:25:57;;;;;;;10.00;7.80;;;;;;;2.00;88.35;95634.14;110357;1277;22155;-82
2023/12/15 00:28:25;;;;;;;10.10;7.50;;;;;;;1.97;88.59;95644.16;110368;1261;22272;-83
2023/12/15 00:30:54;;;;;;;9.30;6.80;;;;;;;1.92;88.67;95646.52;110360;1277;22138;-83
2023/12/15 00:33:22;;;;;;;12.60;8.20;;;;;;;1.89;88.51;95650.80;110315;1277;22915;-82
2023/12/15 00:35:51;;;;;;;11.00;7.80;;;;;;;1.90;88.67;95661.91;110376;1277;22207;-83
2023/12/15 00:38:19;;;;;;;10.30;6.40;;;;;;;1.93;88.60;95670.12;110363;1277;22140;-83
2023/12/15 00:40:47;;;;;;;8.30;6.20;;;;;;;1.96;88.41;95674.15;110348;1277;22152;-83
2023/12/15 00:43:16;;;;;;;9.50;6.40;;;;;;;1.99;88.52;95680.11;110357;1277;22118;-83
2023/12/15 00:45:44;;;;;;;7.10;5.50;;;;;;;2.03;88.51;95686.77;110344;1277;22960;-82
2023/12/15 00:48:13;;;;;;;7.50;5.40;;;;;;;2.08;88.58;95688.76;110353;1277;22129;-83
2023/12/15 00:50:41;;;;;;;8.40;6.20;;;;;;;2.16;88.85;95689.38;110352;1277;22171;-82
2023/12/15 00:53:09;;;;;;;8.70;6.60;;;;;;;2.23;88.56;95693.30;110364;1277;22133;-82
2023/12/15 00:55:38;;;;;;;8.00;6.00;;;;;;;2.27;88.43;95692.85;110364;1277;22102;-82
2023/12/15 00:58:06;;;;;;;11.20;6.90;;;;;;;2.31;88.14;95697.77;110368;1277;22125;-83
2023/12/15 01:00:35;;;;;;;9.50;6.60;;;;;;;2.34;87.98;95695.55;110387;1277;22130;-83
2023/12/15 01:03:04;;;;;;;9.50;6.60;;;;;;;2.34;87.97;95690.70;110361;1277;22174;-83
2023/12/15 01:05:32;;;;;;;9.80;6.10;;;;;;;2.34;87.76;95691.58;110379;1277;22140;-82
2023/12/15 01:08:01;;;;;;;8.90;6.60;;;;;;;2.38;88.36;95695.79;110306;1277;22201;-82
2023/12/15 01:10:29;;;;;;;10.00;6.50;;;;;;;2.48;88.72;95689.50;110378;1277;22124;-82
2023/12/15 01:12:58;;;;;;;10.40;6.50;;;;;;;2.58;88.97;95686.52;110370;1277;22087;-82
2023/12/15 01:15:26;;;;;;;8.10;6.20;;;;;;;2.58;88.22;95682.52;110375;1277;22832;-82
2023/12/15 01:17:54;;;;;;;7.90;5.00;;;;;;;2.46;86.41;95682.36;110358;1277;22133;-83
2023/12/15 01:20:25;;;;;;;7.00;4.80;;;;;;;2.27;86.07;95690.08;110321;1277;22135;-83
2023/12/15 01:22:53;;;;;;;7.90;6.20;;;;;;;2.15;86.41;95699.44;110377;1277;22317;-83
2023/12/15 01:25:22;;;;;;;7.00;4.70;;;;;;;2.02;86.53;95699.59;110357;1277;22107;-83
2023/12/15 01:27:50;;;;;;;6.50;4.80;;;;;;;1.87;86.44;95704.20;110372;1277;22771;-82
2023/12/15 01:30:19;;;;;;;8.70;4.90;;;;;;;1.81;87.16;95704.96;110348;1277;22140;-82
2023/12/15 01:32:47;;;;;;;8.20;5.00;;;;;;;1.78;87.42;95705.26;110365;1277;22121;-82
2023/12/15 01:35:15;;;;;;;5.80;4.50;;;;;;;1.73;87.38;95711.58;110356;1277;22151;-82
2023/12/15 01:37:44;;;;;;;7.60;5.10;;;;;;;1.62;87.02;95714.69;110368;1277;22155;-82
2023/12/15 01:40:12;;;;;;;7.50;5.00;;;;;;;1.54;87.21;95716.29;110364;1277;22163;-82
2023/12/15 01:42:40;;;;;;;6.90;4.50;;;;;;;1.47;87.44;95723.63;110367;1277;22134;-82
2023/12/15 01:45:09;;;;;;;7.00;4.70;;;;;;;1.41;87.40;95725.23;110354;1277;22312;-82
2023/12/15 01:47:37;;;;;;;5.60;4.10;;;;;;;1.34;87.40;95725.27;110378;1277;22985;-82
2023/12/15 01:50:10;;;;;;;5.50;4.30;;;;;;;1.25;87.27;95734.98;110346;1277;23091;-82
2023/12/15 01:52:38;;;;;;;5.10;4.00;;;;;;;1.14;87.20;95737.01;110365;1277;22244;-82
2023/12/15 01:55:07;;;;;;;5.80;4.20;;;;;;;1.04;87.11;95740.81;110363;1277;22832;-82
2023/12/15 01:57:35;;;;;;;6.70;4.90;;;;;;;0.94;87.05;95746.98;110365;1277;22843;-82
2023/12/15 02:00:08;;;;;;;7.00;5.30;;;;;;;0.79;86.92;95759.66;110325;1277;22146;-81
2023/12/15 02:02:39;;;;;;;6.40;4.60;;;;;;;0.63;87.23;95763.66;110353;1277;22178;-82
2023/12/15 02:05:08;;;;;;;6.10;3.50;;;;;;;0.56;87.50;95766.61;110346;1277;22175;-83
2023/12/15 02:07:36;;;;;;;6.60;4.40;;;;;;;0.45;86.93;95768.08;110370;1277;22952;-83
2023/12/15 02:10:05;;;;;;;5.90;4.20;;;;;;;0.34;87.04;95772.33;110369;1277;22868;-82
2023/12/15 02:12:34;;;;;;;7.30;4.50;;;;;;;0.26;87.16;95777.69;110361;1277;22115;-83
2023/12/15 02:15:02;;;;;;;6.80;4.80;;;;;;;0.19;87.09;95783.92;110354;1277;22851;-82
2023/12/15 02:17:31;;;;;;;7.50;5.10;;;;;;;0.16;87.32;95788.86;110355;1277;22880;-83
2023/12/15 02:19:59;;;;;;;6.80;4.90;;;;;;;0.13;87.46;95790.00;110378;1277;22174;-83
2023/12/15 02:22:28;;;;;;;6.50;4.10;;;;;;;0.08;87.48;95792.11;110364;1277;22129;-82
2023/12/15 02:24:56;;;;;;;8.00;4.10;;;;;;;0.05;87.68;95797.24;110351;1277;22327;-83
2023/12/15 02:27:24;;;;;;;5.70;3.80;;;;;;;0.06;88.15;95799.52;110363;1277;22184;-83
2023/12/15 02:29:52;;;;;;;7.70;4.10;;;;;;;0.01;87.71;95801.27;110375;1277;22252;-82
2023/12/15 02:32:21;;;;;;;5.70;4.40;;;;;;;-0.03;88.08;95805.67;110341;1261;22137;-82
2023/12/15 02:34:49;;;;;;;4.50;3.60;;;;;;;-0.03;88.42;95808.64;110365;1277;22123;-82
2023/12/15 02:37:18;;;;;;;7.80;5.00;;;;;;;-0.04;88.35;95810.83;110364;1277;22309;-82
2023/12/15 02:39:46;;;;;;;7.60;4.50;;;;;;;-0.04;88.63;95811.89;110386;1277;23041;-82
2023/12/15 02:42:14;;;;;;;5.80;4.20;;;;;;;-0.01;88.92;95809.19;110353;1277;22090;-82
2023/12/15 02:44:44;;;;;;;5.20;4.00;;;;;;;0.05;89.24;95814.53;110346;1277;22251;-83
2023/12/15 02:47:12;;;;;;;7.00;4.90;;;;;;;0.09;88.98;95822.05;110277;1277;22942;-82
2023/12/15 02:49:41;;;;;;;8.70;5.10;;;;;;;0.10;88.79;95827.80;110364;1277;22188;-83
2023/12/15 02:52:09;;;;;;;8.40;5.20;;;;;;;0.05;88.04;95826.81;110373;1277;22136;-82
2023/12/15 02:54:38;;;;;;;9.60;5.60;;;;;;;-0.04;87.89;95827.95;110372;1277;22208;-82
2023/12/15 02:57:06;;;;;;;7.80;5.00;;;;;;;-0.03;88.79;95828.84;110341;1270;22879;-83
2023/12/15 02:59:34;;;;;;;6.70;4.20;;;;;;;-0.01;88.66;95832.55;110392;1277;22164;-82
2023/12/15 03:02:03;;;;;;;6.90;4.70;;;;;;;0.01;88.61;95836.05;110386;1277;22142;-82
2023/12/15 03:04:31;;;;;;;9.70;5.60;;;;;;;0.03;88.63;95838.70;110361;1277;22844;-82
2023/12/15 03:06:59;;;;;;;9.20;5.60;;;;;;;0.01;88.18;95850.91;110347;1277;22919;-82
2023/12/15 03:09:28;;;;;;;10.20;4.50;;;;;;;-0.06;87.99;95851.09;110341;1277;22143;-82
2023/12/15 03:11:56;;;;;;;7.80;5.60;;;;;;;-0.13;88.08;95854.87;110349;1277;22271;-82
2023/12/15 03:14:25;;;;;;;7.10;4.60;;;;;;;-0.11;88.57;95859.08;110347;1277;22776;-82
2023/12/15 03:16:53;;;;;;;10.20;5.30;;;;;;;-0.07;88.82;95857.27;110369;1277;22269;-81
2023/12/15 03:19:22;;;;;;;8.30;5.90;;;;;;;-0.03;89.18;95858.09;110341;1277;22128;-82
2023/12/15 03:21:50;;;;;;;6.40;4.10;;;;;;;-0.02;89.03;95858.61;110335;1270;22793;-82
2023/12/15 03:24:18;;;;;;;5.90;3.40;;;;;;;-0.05;88.86;95863.91;110336;1277;22850;-82
2023/12/15 03:26:47;;;;;;;5.20;3.70;;;;;;;-0.08;88.78;95870.94;110354;1277;22112;-82
2023/12/15 03:29:15;;;;;;;5.20;3.50;;;;;;;-0.11;88.68;95868.94;110360;1277;22918;-82
2023/12/15 03:31:43;;;;;;;4.60;3.00;;;;;;;-0.10;88.83;95868.95;110211;1277;22155;-82
2023/12/15 03:34:12;;;;;;;3.80;2.30;;;;;;;-0.10;89.06;95871.90;110321;1277;22606;-82
2023/12/15 03:36:40;;;;;;;3.80;2.50;;;;;;;-0.11;88.80;95875.49;110360;1277;22848;-82
2023/12/15 03:39:09;;;;;;;4.00;2.50;;;;;;;-0.23;88.22;95877.95;110357;1277;23000;-82
2023/12/15 03:41:37;;;;;;;2.60;2.10;;;;;;;-0.32;88.24;95884.42;110346;1277;22117;-82
2023/12/15 03:44:06;;;;;;;3.30;2.30;;;;;;;-0.36;88.47;95884.64;110352;1277;22128;-82
2023/12/15 03:46:34;;;;;;;3.70;2.50;;;;;;;-0.39;88.57;95888.58;110356;1277;22150;-82
2023/12/15 03:49:02;;;;;;;3.00;2.20;;;;;;;-0.40;88.77;95889.90;110338;1277;22144;-81
2023/12/15 03:51:31;;;;;;;2.60;2.10;;;;;;;-0.44;88.59;95890.16;110340;1277;22117;-81
2023/12/15 03:53:59;;;;;;;2.40;1.70;;;;;;;-0.50;88.35;95892.24;110335;1277;22269;-82
2023/12/15 03:56:28;;;;;;;2.90;2.00;;;;;;;-0.57;88.55;95894.27;110370;1277;22115;-82
2023/12/15 03:58:56;;;;;;;3.40;2.30;;;;;;;-0.63;89.02;95900.33;110338;1277;22141;-82
2023/12/15 04:01:25;;;;;;;5.20;2.10;;;;;;;-0.72;88.57;95895.06;110349;1277;22134;-82
2023/12/15 04:03:53;;;;;;;3.90;2.80;;;;;;;-0.74;88.86;95895.17;110322;1277;22180;-81
2023/12/15 04:06:21;;;;;;;4.30;2.60;;;;;;;-0.74;88.96;95901.89;110344;1277;22942;-82
2023/12/15 04:08:50;;;;;;;3.40;2.60;;;;;;;-0.74;88.81;95900.68;110350;1277;22130;-82
2023/12/15 04:11:18;;;;;;;2.80;2.00;;;;;;;-0.75;88.77;95902.55;110321;1277;22135;-82
2023/12/15 04:13:47;;;;;;;2.90;1.90;;;;;;;-0.77;88.80;95906.13;110324;1277;22174;-80
2023/12/15 04:16:15;;;;;;;3.70;2.30;;;;;;;-0.75;89.13;95905.48;110316;1277;22205;-80
2023/12/15 04:18:44;;;;;;;3.60;2.40;;;;;;;-0.70;89.66;95903.58;110320;1277;22134;-80
2023/12/15 04:21:12;;;;;;;3.40;2.10;;;;;;;-0.70;89.31;95902.03;110325;1277;22107;-82
2023/12/15 04:23:40;;;;;;;2.20;1.70;;;;;;;-0.73;89.04;95904.70;110337;1277;22621;-81
2023/12/15 04:26:09;;;;;;;3.10;2.30;;;;;;;-0.72;89.36;95906.45;110339;1277;22127;-82
2023/12/15 04:28:46;;;;;;;2.20;1.70;;;;;;;-0.69;89.51;95910.19;110322;1277;22390;-79
2023/12/15 04:31:14;;;;;;;4.20;2.00;;;;;;;-0.70;88.90;95910.50;110338;1277;22130;-83
2023/12/15 04:33:42;;;;;;;3.60;2.50;;;;;;;-0.73;88.96;95909.01;110346;1277;22127;-83
2023/12/15 04:36:11;;;;;;;3.20;2.60;;;;;;;-0.76;88.89;95910.14;110321;1277;22118;-83
2023/12/15 04:38:40;;;;;;;5.20;3.40;;;;;;;-0.81;88.64;95912.39;110319;1266;22209;-82
2023/12/15 04:41:16;;;;;;;20.10;11.60;;;;;;;-0.91;89.35;95913.84;110334;1277;22147;-83
2023/12/15 04:43:45;;;;;;;31.60;17.40;;;;;;;-0.88;89.96;95920.99;109879;1277;577677;-81
2023/12/15 04:46:30;;;;;;;14.60;8.20;;;;;;;-0.81;90.18;95925.35;110354;1277;22138;-81
2023/12/15 04:48:59;;;;;;;8.10;4.50;;;;;;;-0.77;90.01;95931.52;110261;1277;22180;-82
2023/12/15 04:51:28;;;;;;;8.60;4.60;;;;;;;-0.75;89.94;95939.17;110307;1277;22120;-81
2023/12/15 04:53:56;;;;;;;34.50;17.20;;;;;;;-0.68;90.17;95942.50;110329;1277;22142;-81
2023/12/15 04:56:25;;;;;;;21.60;10.70;;;;;;;-0.59;90.30;95943.28;110239;1277;22101;-81
2023/12/15 04:58:53;;;;;;;23.50;12.70;;;;;;;-0.52;90.35;95949.20;110357;1277;22279;-81
2023/12/15 05:01:21;;;;;;;13.90;8.20;;;;;;;-0.51;89.91;95956.16;110316;1277;22162;-82
2023/12/15 05:03:49;;;;;;;8.20;4.40;;;;;;;-0.55;89.54;95957.41;110333;1277;22123;-81
2023/12/15 05:06:22;;;;;;;7.20;5.10;;;;;;;-0.51;90.24;95966.16;110326;1277;22114;-81
2023/12/15 05:08:55;;;;;;;6.20;3.70;;;;;;;-0.52;89.79;95972.70;110273;1277;22150;-81
2023/12/15 05:11:25;;;;;;;3.90;3.00;;;;;;;-0.54;89.61;95975.39;110313;1277;22168;-81
2023/12/15 05:13:53;;;;;;;4.30;3.00;;;;;;;-0.57;89.50;95977.04;110314;1277;22182;-81
2023/12/15 05:16:21;;;;;;;4.90;3.10;;;;;;;-0.67;88.86;95982.95;110327;1277;22136;-82
2023/12/15 05:18:49;;;;;;;4.20;2.10;;;;;;;-0.81;88.16;95990.14;110314;1277;22124;-81
2023/12/15 05:21:18;;;;;;;2.10;1.50;;;;;;;-0.93;88.20;95995.96;110296;1277;22223;-82
2023/12/15 05:23:46;;;;;;;3.50;1.70;;;;;;;-0.99;88.57;95999.92;110338;1277;22949;-81
2023/12/15 05:26:15;;;;;;;2.20;1.60;;;;;;;-1.05;88.42;96003.52;110315;1277;22794;-80
2023/12/15 05:28:44;;;;;;;3.30;1.70;;;;;;;-1.09;88.78;96004.26;110304;1277;22167;-81
2023/12/15 05:31:13;;;;;;;2.40;2.10;;;;;;;-1.10;88.87;96009.56;110307;1277;22136;-81
2023/12/15 05:33:42;;;;;;;2.60;1.90;;;;;;;-1.13;88.91;96017.59;110327;1277;22214;-81
2023/12/15 05:36:20;;;;;;;3.20;1.90;;;;;;;-1.23;88.53;96019.86;110351;1277;22109;-81
2023/12/15 05:38:48;;;;;;;1.90;1.70;;;;;;;-1.27;88.72;96027.48;110304;1277;22215;-81
2023/12/15 05:41:17;;;;;;;4.50;2.30;;;;;;;-1.28;89.01;96025.20;110271;1277;22984;-81
2023/12/15 05:43:45;;;;;;;4.40;2.50;;;;;;;-1.30;88.96;96031.88;110340;1277;23015;-81
2023/12/15 05:46:14;;;;;;;2.10;1.50;;;;;;;-1.31;89.01;96036.86;110324;1277;22131;-81
2023/12/15 05:48:42;;;;;;;2.00;1.70;;;;;;;-1.32;88.90;96042.35;110291;1277;22823;-81
2023/12/15 05:51:11;;;;;;;2.60;1.70;;;;;;;-1.36;88.71;96047.86;110325;1277;22115;-81
2023/12/15 05:53:39;;;;;;;2.20;1.50;;;;;;;-1.44;88.47;96049.84;110310;1277;22943;-82
2023/12/15 05:56:22;;;;;;;6.90;4.50;;;;;;;-1.56;88.31;96058.05;110300;1277;22248;-81
2023/12/15 05:58:50;;;;;;;2.60;1.90;;;;;;;-1.63;88.35;96058.86;110318;1277;23009;-82
2023/12/15 06:01:18;;;;;;;4.00;2.10;;;;;;;-1.64;88.64;96064.88;110324;1277;22341;-81
2023/12/15 06:03:46;;;;;;;2.80;1.80;;;;;;;-1.60;89.00;96069.63;110319;1277;22212;-83
2023/12/15 06:06:15;;;;;;;3.20;2.10;;;;;;;-1.56;89.16;96076.67;110242;1277;22348;-81
2023/12/15 06:08:44;;;;;;;2.40;1.60;;;;;;;-1.49;89.34;96080.55;110250;1277;22155;-82
2023/12/15 06:11:12;;;;;;;3.00;1.80;;;;;;;-1.46;89.47;96084.98;110246;1277;22797;-81
2023/12/15 06:13:41;;;;;;;3.30;1.80;;;;;;;-1.43;89.51;96088.70;110312;1274;22344;-80
2023/12/15 06:16:20;;;;;;;3.00;1.80;;;;;;;-1.40;89.51;96089.85;110316;1277;22235;-83
2023/12/15 06:18:48;;;;;;;3.20;2.10;;;;;;;-1.37;89.45;96090.13;110250;1278;22942;-82
2023/12/15 06:21:24;;;;;;;4.40;2.70;;;;;;;-1.35;89.08;96086.92;110307;1277;22873;-83
2023/12/15 06:23:53;;;;;;;6.40;2.60;;;;;;;-1.36;89.03;96093.09;110290;1277;22922;-82
2023/12/15 06:26:23;;;;;;;7.10;4.40;;;;;;;-1.36;88.92;96090.86;110274;1267;22125;-84
2023/12/15 06:28:55;;;;;;;3.40;2.30;;;;;;;-1.33;89.09;96091.83;110539;1265;22398;-82
2023/12/15 06:31:29;;;;;;;3.40;2.50;;;;;;;-1.25;89.30;96096.73;110285;1277;22285;-81
2023/12/15 06:33:57;;;;;;;3.70;2.00;;;;;;;-1.15;89.50;96100.91;110307;1277;22839;-84
2023/12/15 06:36:26;;;;;;;2.20;1.70;;;;;;;-1.22;88.19;96108.27;110307;1277;22265;-82
2023/12/15 06:38:57;;;;;;;5.10;2.60;;;;;;;-1.23;88.42;96116.48;110298;1277;22056;-83
2023/12/15 06:41:26;;;;;;;2.80;1.80;;;;;;;-1.17;88.70;96112.40;110314;1277;22124;-84
2023/12/15 06:43:55;;;;;;;5.70;1.70;;;;;;;-1.16;88.48;96117.77;110291;1277;22862;-82
2023/12/15 06:46:24;;;;;;;2.00;1.60;;;;;;;-1.14;88.87;96123.73;110315;1277;22884;-83
2023/12/15 06:48:53;;;;;;;4.90;2.70;;;;;;;-1.12;88.66;96126.73;110296;1277;22146;-83
2023/12/15 06:51:21;;;;;;;6.50;2.90;;;;;;;-1.16;88.15;96131.95;110300;1277;22387;-82
2023/12/15 06:53:49;;;;;;;5.70;3.70;;;;;;;-1.18;88.08;96136.53;110269;1277;22255;-83
2023/12/15 06:56:17;;;;;;;7.50;4.60;;;;;;;-1.20;88.14;96137.64;110287;1277;23035;-81
2023/12/15 06:58:45;;;;;;;3.30;2.30;;;;;;;-1.20;88.37;96139.23;110269;1277;22168;-83
2023/12/15 07:01:13;;;;;;;2.10;1.60;;;;;;;-1.17;88.48;96140.73;110291;1277;22971;-84
2023/12/15 07:03:42;;;;;;;3.00;2.00;;;;;;;-1.17;88.47;96145.18;110300;1277;22209;-83
2023/12/15 07:06:10;;;;;;;11.90;5.70;;;;;;;-1.17;88.83;96148.30;110261;1277;22348;-84
2023/12/15 07:08:38;;;;;;;19.80;11.70;;;;;;;-1.16;89.18;96151.46;110268;1277;22519;-85
2023/12/15 07:11:06;;;;;;;27.90;15.90;;;;;;;-1.15;89.48;96155.98;110259;1277;22683;-82
2023/12/15 07:13:34;;;;;;;13.00;7.90;;;;;;;-1.14;89.80;96162.55;110284;1277;22141;-81
2023/12/15 07:16:03;;;;;;;9.90;6.70;;;;;;;-1.09;90.03;96164.79;110266;1277;22188;-84
2023/12/15 07:18:32;;;;;;;15.80;11.20;;;;;;;-1.04;89.88;96168.60;110278;1277;22547;-83
2023/12/15 07:21:01;;;;;;;15.40;11.60;;;;;;;-0.98;90.03;96171.42;110253;1277;22837;-81
2023/12/15 07:23:29;;;;;;;25.70;17.10;;;;;;;-0.94;90.59;96177.95;110260;1277;22143;-83
2023/12/15 07:25:57;;;;;;;10.70;6.50;;;;;;;-0.88;90.70;96182.64;110285;1277;22188;-84
2023/12/15 07:28:25;;;;;;;109.20;43.80;;;;;;;-0.84;90.43;96187.08;110309;1277;23036;-84
2023/12/15 07:30:53;;;;;;;22.30;12.30;;;;;;;-0.82;90.37;96190.10;110280;1277;22159;-83
2023/12/15 07:33:22;;;;;;;19.80;14.00;;;;;;;-0.74;90.20;96194.02;110295;1277;22168;-83
2023/12/15 07:35:50;;;;;;;13.10;7.80;;;;;;;-0.65;90.41;96193.46;110298;1277;22137;-83
2023/12/15 07:38:18;;;;;;;13.50;7.60;;;;;;;-0.60;89.96;96198.63;110317;1277;22107;-84
2023/12/15 07:40:46;;;;;;;25.90;18.30;;;;;;;-0.58;89.57;96200.23;110299;1277;22239;-87
2023/12/15 07:43:14;;;;;;;21.90;12.50;;;;;;;-0.51;90.04;96203.40;110290;1277;22172;-85
2023/12/15 07:45:42;;;;;;;18.80;13.00;;;;;;;-0.38;90.28;96212.67;110291;1277;22144;-84
2023/12/15 07:48:11;;;;;;;23.60;13.90;;;;;;;-0.31;90.11;96211.36;110300;1277;22135;-87
2023/12/15 07:50:39;;;;;;;18.10;11.70;;;;;;;-0.19;90.15;96212.96;110258;1277;22155;-87
2023/12/15 07:53:07;;;;;;;17.90;11.60;;;;;;;-0.13;89.79;96213.83;110296;1277;22207;-85
2023/12/15 07:55:35;;;;;;;20.00;10.70;;;;;;;-0.04;89.83;96213.27;110259;1277;22264;-84
2023/12/15 07:58:04;;;;;;;19.90;13.00;;;;;;;0.05;89.76;96211.98;110276;1277;22132;-85
2023/12/15 08:00:32;;;;;;;22.70;16.00;;;;;;;0.15;89.61;96218.36;110261;1277;22122;-81
2023/12/15 08:03:00;;;;;;;34.10;19.10;;;;;;;0.26;90.14;96225.44;110272;1277;22161;-85
2023/12/15 08:05:28;;;;;;;21.10;12.80;;;;;;;0.44;90.29;96228.25;110325;1277;22277;-84
2023/12/15 08:07:56;;;;;;;18.10;11.20;;;;;;;0.61;90.02;96235.16;110302;1277;22362;-83
2023/12/15 08:10:27;;;;;;;15.60;10.90;;;;;;;0.74;89.70;96234.17;110310;1277;22160;-85
2023/12/15 08:12:55;;;;;;;14.80;9.10;;;;;;;0.89;89.35;96239.27;110296;1277;22132;-83
2023/12/15 08:15:23;;;;;;;15.10;9.20;;;;;;;0.98;88.71;96238.86;110311;1274;22909;-84
2023/12/15 08:17:51;;;;;;;14.30;8.80;;;;;;;1.09;88.82;96245.39;110285;1277;22203;-84
2023/12/15 08:20:19;;;;;;;10.30;7.30;;;;;;;1.16;87.55;96245.41;110294;1277;22932;-82
2023/12/15 08:22:47;;;;;;;13.80;8.10;;;;;;;1.24;87.99;96246.15;110302;1277;22141;-82
2023/12/15 08:25:15;;;;;;;15.60;9.40;;;;;;;1.33;87.95;96251.77;110284;1277;22232;-81
2023/12/15 08:27:43;;;;;;;15.20;9.40;;;;;;;1.39;87.72;96252.46;110278;1263;22328;-83
2023/12/15 08:30:11;;;;;;;15.40;9.40;;;;;;;1.33;86.42;96260.10;110294;1277;22155;-84
2023/12/15 08:32:40;;;;;;;14.00;9.30;;;;;;;1.25;86.42;96267.17;110305;1277;22131;-85
2023/12/15 08:35:08;;;;;;;17.30;9.70;;;;;;;1.17;86.16;96276.30;110292;1277;22592;-88
2023/12/15 08:37:36;;;;;;;14.90;10.00;;;;;;;1.08;86.52;96284.86;110284;1277;22273;-83
2023/12/15 08:40:05;;;;;;;13.20;9.00;;;;;;;1.08;86.96;96282.44;110269;1277;22133;-85
2023/12/15 08:42:33;;;;;;;18.80;10.50;;;;;;;1.15;87.24;96284.05;110284;1277;22176;-83
2023/12/15 08:45:01;;;;;;;19.00;10.90;;;;;;;1.29;87.73;96287.38;110292;1277;22954;-83
2023/12/15 08:47:30;;;;;;;25.40;12.10;;;;;;;1.45;87.64;96283.52;110292;1277;23016;-84
2023/12/15 08:49:58;;;;;;;18.50;11.10;;;;;;;1.61;87.49;96285.13;110297;1277;22170;-85
2023/12/15 08:52:26;;;;;;;14.30;7.80;;;;;;;1.74;87.19;96282.02;110297;1277;22139;-83
2023/12/15 08:54:54;;;;;;;14.10;8.30;;;;;;;1.88;86.30;96284.30;110273;1277;22152;-82
2023/12/15 08:57:23;;;;;;;19.10;10.90;;;;;;;2.01;86.33;96281.69;110266;1277;22172;-82
2023/12/15 08:59:51;;;;;;;20.90;11.80;;;;;;;2.09;85.36;96279.80;110315;1277;22127;-85
2023/12/15 09:02:19;;;;;;;23.20;13.90;;;;;;;2.14;85.30;96280.45;110287;1277;22177;-83
2023/12/15 09:04:48;;;;;;;17.90;11.60;;;;;;;2.19;85.11;96288.54;110302;1277;22187;-85
2023/12/15 09:07:28;;;;;;;19.50;12.50;;;;;;;2.20;84.67;96293.42;110113;1277;22400;-83
2023/12/15 09:09:57;;;;;;;16.80;10.30;;;;;;;2.23;84.39;96295.23;110295;1277;22251;-85
2023/12/15 09:12:25;;;;;;;16.80;10.80;;;;;;;2.26;84.36;96292.20;110310;1277;22137;-83
2023/12/15 09:14:53;;;;;;;14.80;9.20;;;;;;;2.32;84.12;96290.59;110296;1274;22168;-81
2023/12/15 09:17:21;;;;;;;13.80;8.60;;;;;;;2.35;83.50;96287.72;110297;1277;22837;-84
2023/12/15 09:19:49;;;;;;;21.00;12.20;;;;;;;2.45;84.02;96290.05;110300;1277;22212;-84
2023/12/15 09:22:17;;;;;;;19.30;10.90;;;;;;;2.64;84.34;96285.45;110286;1277;22182;-82
2023/12/15 09:24:45;;;;;;;23.00;12.70;;;;;;;2.88;84.40;96286.34;110294;1277;22134;-81
2023/12/15 09:27:13;;;;;;;15.50;9.50;;;;;;;3.12;83.16;96288.25;110302;1258;22183;-81
2023/12/15 09:29:41;;;;;;;20.40;10.90;;;;;;;3.22;82.02;96291.41;110299;1277;22609;-81
2023/12/15 09:32:09;;;;;;;12.00;7.70;;;;;;;3.22;80.79;96293.88;110297;1277;22181;-82
2023/12/15 09:34:37;;;;;;;15.50;8.10;;;;;;;3.24;80.30;96298.41;110275;1277;22813;-82
2023/12/15 09:37:06;;;;;;;11.10;6.70;;;;;;;3.32;80.03;96293.89;110281;1277;22143;-81
2023/12/15 09:39:34;;;;;;;14.30;6.60;;;;;;;3.43;79.56;96298.12;110300;1277;22617;-82
2023/12/15 09:42:02;;;;;;;6.90;4.10;;;;;;;3.55;79.36;96302.36;110318;1277;22921;-83
2023/12/15 09:44:31;;;;;;;8.20;4.30;;;;;;;3.61;78.37;96308.21;110305;1277;22146;-85
2023/12/15 09:46:59;;;;;;;4.80;3.50;;;;;;;3.65;77.59;96304.30;110291;1277;22165;-80
2023/12/15 09:49:29;;;;;;;5.70;3.80;;;;;;;3.69;76.98;96304.55;110306;1277;22125;-80
2023/12/15 09:52:04;;;;;;;5.30;3.50;;;;;;;3.73;77.30;96302.17;110304;1277;22908;-79
2023/12/15 09:54:34;;;;;;;5.10;3.40;;;;;;;3.74;76.72;96308.46;110274;1277;23038;-80
2023/12/15 09:57:03;;;;;;;8.10;4.10;;;;;;;3.71;76.74;96307.52;110300;1277;22160;-80
2023/12/15 09:59:31;;;;;;;11.70;6.30;;;;;;;3.73;76.69;96306.17;110289;1277;22124;-80
2023/12/15 10:01:59;;;;;;;7.50;4.80;;;;;;;3.79;77.56;96311.70;110280;1277;22134;-79
2023/12/15 10:04:27;;;;;;;8.80;5.50;;;;;;;3.86;77.26;96311.13;110313;1277;22149;-82
2023/12/15 10:06:55;;;;;;;4.90;3.80;;;;;;;3.91;76.68;96309.66;110320;1277;22317;-81
2023/12/15 10:09:24;;;;;;;10.40;7.10;;;;;;;3.97;76.42;96315.67;110339;1277;22307;-80
2023/12/15 10:11:55;;;;;;;10.30;6.00;;;;;;;4.05;76.77;96321.05;110335;1267;22224;-80
2023/12/15 10:14:24;;;;;;;5.50;4.00;;;;;;;4.08;76.43;96324.43;110298;1277;22127;-80
2023/12/15 10:16:52;;;;;;;7.40;4.70;;;;;;;4.08;75.74;96324.60;110286;1277;22317;-80
2023/12/15 10:19:23;;;;;;;7.80;5.60;;;;;;;4.07;75.70;96326.49;110289;1277;22305;-81
2023/12/15 10:21:51;;;;;;;7.80;5.20;;;;;;;4.15;76.02;96330.63;110295;1277;22140;-81
2023/12/15 10:24:24;;;;;;;8.20;5.10;;;;;;;4.24;75.51;96328.89;110299;1277;23013;-81
2023/12/15 10:26:52;;;;;;;7.50;4.90;;;;;;;4.26;75.29;96325.79;110288;1277;22840;-81
2023/12/15 10:29:23;;;;;;;5.90;4.40;;;;;;;4.27;74.75;96335.54;110310;1277;22156;-81
2023/12/15 10:31:52;;;;;;;5.60;4.00;;;;;;;4.25;75.04;96337.95;110319;1277;22149;-81
2023/12/15 10:34:27;;;;;;;7.40;4.50;;;;;;;4.20;74.41;96343.79;110303;1277;22130;-81
2023/12/15 10:36:55;;;;;;;8.10;5.40;;;;;;;4.20;74.22;96345.00;110301;1277;22149;-81
2023/12/15 10:39:24;;;;;;;10.50;6.50;;;;;;;4.33;74.76;96348.37;110289;1277;23194;-81
2023/12/15 10:41:53;;;;;;;12.70;8.00;;;;;;;4.37;74.53;96350.36;110316;1277;22277;-81
2023/12/15 10:44:24;;;;;;;10.80;6.30;;;;;;;4.40;74.34;96352.49;110308;1277;22239;-81
2023/12/15 10:46:53;;;;;;;5.60;3.70;;;;;;;4.50;75.00;96348.84;110314;1274;22222;-81
2023/12/15 10:49:21;;;;;;;10.80;7.10;;;;;;;4.66;74.32;96346.66;110304;1277;22139;-80
2023/12/15 10:51:50;;;;;;;15.70;7.50;;;;;;;4.82;73.77;96342.04;110311;1277;22130;-81
2023/12/15 10:54:18;;;;;;;9.10;6.40;;;;;;;5.01;73.07;96339.02;110322;1277;22792;-81
2023/12/15 10:56:51;;;;;;;6.10;4.90;;;;;;;5.34;72.06;96337.73;110311;1277;22226;-81
2023/12/15 10:59:19;;;;;;;9.40;5.50;;;;;;;5.46;71.65;96337.20;110303;1277;22133;-81
2023/12/15 11:01:48;;;;;;;8.90;6.30;;;;;;;5.38;70.57;96339.89;110323;1277;22825;-81
2023/12/15 11:04:20;;;;;;;7.90;5.00;;;;;;;5.33;70.88;96335.64;110310;1277;22139;-82
2023/12/15 11:06:49;;;;;;;10.80;6.90;;;;;;;5.35;70.73;96340.02;110310;1264;22130;-81
2023/12/15 11:09:32;;;;;;;10.00;7.20;;;;;;;5.29;70.00;96336.98;110180;1277;22294;-82
2023/12/15 11:12:27;;;;;;;10.60;6.70;;;;;;;5.15;70.47;96338.17;110300;1277;22913;-83
2023/12/15 11:15:02;;;;;;;17.00;8.10;;;;;;;5.07;70.77;96335.96;110311;1277;22125;-81
2023/12/15 11:17:31;;;;;;;14.40;8.30;;;;;;;4.97;71.35;96335.12;110311;1277;22528;-81
2023/12/15 11:20:08;;;;;;;10.30;6.40;;;;;;;5.00;71.60;96341.96;110294;1277;22103;-81
2023/12/15 11:22:47;;;;;;;12.40;8.70;;;;;;;4.97;71.84;96349.23;110302;1277;22228;-81
2023/12/15 11:25:20;;;;;;;9.40;7.30;;;;;;;4.92;72.11;96360.70;110324;1277;22151;-81
2023/12/15 11:27:57;;;;;;;14.30;8.80;;;;;;;4.82;71.86;96366.27;110299;1277;22869;-81
2023/12/15 11:30:29;;;;;;;6.90;5.00;;;;;;;4.59;71.98;96372.52;110321;1277;22800;-81
2023/12/15 11:32:58;;;;;;;7.10;5.00;;;;;;;4.42;72.19;96371.86;110324;1277;23007;-81